sensor_id;sensor_type;location;lat;lon;timestamp;P1;durP1;ratioP1;P2;durP2;ratioP2
40471;SDS011;26174;42.908;23.800;2023-11-18T00:01:19;0.55;;;0.30;;
40471;SDS011;26174;42.908;23.800;2023-11-18T00:03:45;0.30;;;0.20;;
40471;SDS011;26174;42.908;23.800;2023-11-18T00:06:11;0.30;;;0.25;;
40471;SDS011;26174;42.908;23.800;2023-11-18T00:08:36;0.40;;;0.30;;
40471;SDS011;26174;42.908;23.800;2023-11-18T00:11:02;0.20;;;0.20;;
40471;SDS011;26174;42.908;23.800;2023-11-18T00:13:28;0.88;;;0.63;;
40471;SDS011;26174;42.908;23.800;2023-11-18T00:15:54;0.38;;;0.30;;
40471;SDS011;26174;42.908;23.800;2023-11-18T00:18:19;1.27;;;0.50;;
40471;SDS011;26174;42.908;23.800;2023-11-18T00:20:45;0.50;;;0.50;;
40471;SDS011;26174;42.908;23.800;2023-11-18T00:23:11;0.38;;;0.38;;
40471;SDS011;26174;42.908;23.800;2023-11-18T00:25:36;0.75;;;0.38;;
40471;SDS011;26174;42.908;23.800;2023-11-18T00:28:05;0.30;;;0.22;;
40471;SDS011;26174;42.908;23.800;2023-11-18T00:30:32;0.22;;;0.20;;
40471;SDS011;26174;42.908;23.800;2023-11-18T00:32:58;0.30;;;0.30;;
40471;SDS011;26174;42.908;23.800;2023-11-18T00:35:24;0.10;;;0.10;;
40471;SDS011;26174;42.908;23.800;2023-11-18T00:37:50;0.20;;;0.20;;
40471;SDS011;26174;42.908;23.800;2023-11-18T00:40:15;0.93;;;0.60;;
40471;SDS011;26174;42.908;23.800;2023-11-18T00:42:43;0.30;;;0.30;;
40471;SDS011;26174;42.908;23.800;2023-11-18T00:45:10;0.55;;;0.55;;
40471;SDS011;26174;42.908;23.800;2023-11-18T00:47:37;1.85;;;0.57;;
40471;SDS011;26174;42.908;23.800;2023-11-18T00:50:04;0.52;;;0.32;;
40471;SDS011;26174;42.908;23.800;2023-11-18T00:52:33;0.30;;;0.30;;
40471;SDS011;26174;42.908;23.800;2023-11-18T00:54:59;0.20;;;0.20;;
40471;SDS011;26174;42.908;23.800;2023-11-18T00:57:24;0.10;;;0.10;;
40471;SDS011;26174;42.908;23.800;2023-11-18T00:59:50;0.00;;;0.00;;
40471;SDS011;26174;42.908;23.800;2023-11-18T01:02:15;1.67;;;0.47;;
40471;SDS011;26174;42.908;23.800;2023-11-18T01:04:43;0.43;;;0.28;;
40471;SDS011;26174;42.908;23.800;2023-11-18T01:07:11;0.10;;;0.10;;
40471;SDS011;26174;42.908;23.800;2023-11-18T01:09:37;0.98;;;0.75;;
40471;SDS011;26174;42.908;23.800;2023-11-18T01:12:04;0.43;;;0.43;;
40471;SDS011;26174;42.908;23.800;2023-11-18T01:14:31;0.50;;;0.50;;
40471;SDS011;26174;42.908;23.800;2023-11-18T01:16:56;0.30;;;0.30;;
40471;SDS011;26174;42.908;23.800;2023-11-18T01:19:22;0.10;;;0.10;;
40471;SDS011;26174;42.908;23.800;2023-11-18T01:21:48;0.10;;;0.10;;
40471;SDS011;26174;42.908;23.800;2023-11-18T01:24:14;0.20;;;0.20;;
40471;SDS011;26174;42.908;23.800;2023-11-18T01:26:41;0.10;;;0.10;;
40471;SDS011;26174;42.908;23.800;2023-11-18T01:29:07;0.13;;;0.13;;
40471;SDS011;26174;42.908;23.800;2023-11-18T01:31:32;0.47;;;0.40;;
40471;SDS011;26174;42.908;23.800;2023-11-18T01:33:58;1.10;;;0.55;;
40471;SDS011;26174;42.908;23.800;2023-11-18T01:36:25;0.00;;;0.00;;
40471;SDS011;26174;42.908;23.800;2023-11-18T01:38:50;0.40;;;0.38;;
40471;SDS011;26174;42.908;23.800;2023-11-18T01:41:16;2.58;;;0.40;;
40471;SDS011;26174;42.908;23.800;2023-11-18T01:43:45;0.40;;;0.40;;
40471;SDS011;26174;42.908;23.800;2023-11-18T01:46:11;0.60;;;0.50;;
40471;SDS011;26174;42.908;23.800;2023-11-18T01:48:38;0.88;;;0.65;;
40471;SDS011;26174;42.908;23.800;2023-11-18T01:51:04;0.55;;;0.52;;
40471;SDS011;26174;42.908;23.800;2023-11-18T01:56:05;0.40;;;0.40;;
40471;SDS011;26174;42.908;23.800;2023-11-18T01:58:32;3.45;;;0.47;;
40471;SDS011;26174;42.908;23.800;2023-11-18T02:00:58;1.02;;;0.85;;
40471;SDS011;26174;42.908;23.800;2023-11-18T02:03:23;0.38;;;0.38;;
40471;SDS011;26174;42.908;23.800;2023-11-18T02:05:52;0.35;;;0.35;;
40471;SDS011;26174;42.908;23.800;2023-11-18T02:08:17;0.52;;;0.52;;
40471;SDS011;26174;42.908;23.800;2023-11-18T02:10:47;0.75;;;0.75;;
40471;SDS011;26174;42.908;23.800;2023-11-18T02:15:41;1.00;;;0.75;;
40471;SDS011;26174;42.908;23.800;2023-11-18T02:18:06;0.20;;;0.20;;
40471;SDS011;26174;42.908;23.800;2023-11-18T02:20:35;0.30;;;0.30;;
40471;SDS011;26174;42.908;23.800;2023-11-18T02:23:01;0.25;;;0.25;;
40471;SDS011;26174;42.908;23.800;2023-11-18T02:25:27;0.10;;;0.10;;
40471;SDS011;26174;42.908;23.800;2023-11-18T02:27:55;0.10;;;0.10;;
40471;SDS011;26174;42.908;23.800;2023-11-18T02:30:21;0.05;;;0.05;;
40471;SDS011;26174;42.908;23.800;2023-11-18T02:35:41;0.00;;;0.00;;
40471;SDS011;26174;42.908;23.800;2023-11-18T02:38:15;0.75;;;0.10;;
40471;SDS011;26174;42.908;23.800;2023-11-18T02:40:44;0.00;;;0.00;;
40471;SDS011;26174;42.908;23.800;2023-11-18T02:43:12;0.08;;;0.08;;
40471;SDS011;26174;42.908;23.800;2023-11-18T02:45:37;0.10;;;0.10;;
40471;SDS011;26174;42.908;23.800;2023-11-18T02:48:06;0.85;;;0.50;;
40471;SDS011;26174;42.908;23.800;2023-11-18T02:50:32;0.10;;;0.10;;
40471;SDS011;26174;42.908;23.800;2023-11-18T02:52:57;0.22;;;0.22;;
40471;SDS011;26174;42.908;23.800;2023-11-18T02:55:23;0.10;;;0.10;;
40471;SDS011;26174;42.908;23.800;2023-11-18T02:57:49;0.08;;;0.08;;
40471;SDS011;26174;42.908;23.800;2023-11-18T03:00:17;0.20;;;0.20;;
40471;SDS011;26174;42.908;23.800;2023-11-18T03:02:49;0.40;;;0.30;;
40471;SDS011;26174;42.908;23.800;2023-11-18T03:05:16;0.10;;;0.10;;
40471;SDS011;26174;42.908;23.800;2023-11-18T03:07:46;1.08;;;0.85;;
40471;SDS011;26174;42.908;23.800;2023-11-18T03:10:18;0.70;;;0.30;;
40471;SDS011;26174;42.908;23.800;2023-11-18T03:12:47;0.20;;;0.20;;
40471;SDS011;26174;42.908;23.800;2023-11-18T03:15:14;0.00;;;0.00;;
40471;SDS011;26174;42.908;23.800;2023-11-18T03:17:43;0.47;;;0.35;;
40471;SDS011;26174;42.908;23.800;2023-11-18T03:20:10;0.13;;;0.13;;
40471;SDS011;26174;42.908;23.800;2023-11-18T03:22:39;0.10;;;0.10;;
40471;SDS011;26174;42.908;23.800;2023-11-18T03:25:05;1.02;;;0.45;;
40471;SDS011;26174;42.908;23.800;2023-11-18T03:27:33;5.38;;;4.13;;
40471;SDS011;26174;42.908;23.800;2023-11-18T03:29:58;2.72;;;2.03;;
40471;SDS011;26174;42.908;23.800;2023-11-18T03:32:24;0.32;;;0.32;;
40471;SDS011;26174;42.908;23.800;2023-11-18T03:34:49;0.77;;;0.77;;
40471;SDS011;26174;42.908;23.800;2023-11-18T03:37:15;13.13;;;8.40;;
40471;SDS011;26174;42.908;23.800;2023-11-18T03:39:41;5.43;;;2.70;;
40471;SDS011;26174;42.908;23.800;2023-11-18T03:42:06;0.73;;;0.73;;
40471;SDS011;26174;42.908;23.800;2023-11-18T03:44:33;2.33;;;1.55;;
40471;SDS011;26174;42.908;23.800;2023-11-18T03:46:59;0.20;;;0.20;;
40471;SDS011;26174;42.908;23.800;2023-11-18T03:49:24;0.35;;;0.30;;
40471;SDS011;26174;42.908;23.800;2023-11-18T03:51:50;5.05;;;0.65;;
40471;SDS011;26174;42.908;23.800;2023-11-18T03:54:16;2.17;;;1.08;;
40471;SDS011;26174;42.908;23.800;2023-11-18T03:56:41;0.30;;;0.30;;
40471;SDS011;26174;42.908;23.800;2023-11-18T03:59:07;0.55;;;0.43;;
40471;SDS011;26174;42.908;23.800;2023-11-18T04:01:32;0.73;;;0.73;;
40471;SDS011;26174;42.908;23.800;2023-11-18T04:03:58;0.95;;;0.90;;
40471;SDS011;26174;42.908;23.800;2023-11-18T04:06:24;0.10;;;0.10;;
40471;SDS011;26174;42.908;23.800;2023-11-18T04:08:49;0.05;;;0.05;;
40471;SDS011;26174;42.908;23.800;2023-11-18T04:11:16;1.08;;;0.65;;
40471;SDS011;26174;42.908;23.800;2023-11-18T04:13:42;0.30;;;0.30;;
40471;SDS011;26174;42.908;23.800;2023-11-18T04:16:11;0.15;;;0.15;;
40471;SDS011;26174;42.908;23.800;2023-11-18T04:18:44;0.30;;;0.30;;
40471;SDS011;26174;42.908;23.800;2023-11-18T04:21:10;0.20;;;0.20;;
40471;SDS011;26174;42.908;23.800;2023-11-18T04:23:37;0.65;;;0.65;;
40471;SDS011;26174;42.908;23.800;2023-11-18T04:26:07;0.00;;;0.00;;
40471;SDS011;26174;42.908;23.800;2023-11-18T04:28:33;0.08;;;0.08;;
40471;SDS011;26174;42.908;23.800;2023-11-18T04:30:59;0.00;;;0.00;;
40471;SDS011;26174;42.908;23.800;2023-11-18T04:33:25;22.65;;;1.05;;
40471;SDS011;26174;42.908;23.800;2023-11-18T04:35:50;3.50;;;0.65;;
40471;SDS011;26174;42.908;23.800;2023-11-18T04:38:16;0.20;;;0.20;;
40471;SDS011;26174;42.908;23.800;2023-11-18T04:40:42;3.47;;;1.35;;
40471;SDS011;26174;42.908;23.800;2023-11-18T04:43:11;2.13;;;1.48;;
40471;SDS011;26174;42.908;23.800;2023-11-18T04:45:37;0.47;;;0.47;;
40471;SDS011;26174;42.908;23.800;2023-11-18T04:48:03;0.75;;;0.68;;
40471;SDS011;26174;42.908;23.800;2023-11-18T04:50:29;0.30;;;0.30;;
40471;SDS011;26174;42.908;23.800;2023-11-18T04:52:56;0.40;;;0.40;;
40471;SDS011;26174;42.908;23.800;2023-11-18T04:55:21;2.78;;;1.55;;
40471;SDS011;26174;42.908;23.800;2023-11-18T04:57:47;2.05;;;1.05;;
40471;SDS011;26174;42.908;23.800;2023-11-18T05:00:13;0.45;;;0.45;;
40471;SDS011;26174;42.908;23.800;2023-11-18T05:02:41;1.20;;;1.15;;
40471;SDS011;26174;42.908;23.800;2023-11-18T05:05:08;1.23;;;1.13;;
40471;SDS011;26174;42.908;23.800;2023-11-18T05:07:34;1.52;;;1.35;;
40471;SDS011;26174;42.908;23.800;2023-11-18T05:10:01;0.77;;;0.55;;
40471;SDS011;26174;42.908;23.800;2023-11-18T05:12:28;0.82;;;0.47;;
40471;SDS011;26174;42.908;23.800;2023-11-18T05:14:54;0.10;;;0.10;;
40471;SDS011;26174;42.908;23.800;2023-11-18T05:17:21;0.47;;;0.32;;
40471;SDS011;26174;42.908;23.800;2023-11-18T05:19:48;0.82;;;0.80;;
40471;SDS011;26174;42.908;23.800;2023-11-18T05:22:13;1.73;;;1.55;;
40471;SDS011;26174;42.908;23.800;2023-11-18T05:24:39;1.05;;;0.90;;
40471;SDS011;26174;42.908;23.800;2023-11-18T05:27:04;1.20;;;0.85;;
40471;SDS011;26174;42.908;23.800;2023-11-18T05:29:30;1.67;;;1.17;;
40471;SDS011;26174;42.908;23.800;2023-11-18T05:31:57;0.28;;;0.28;;
40471;SDS011;26174;42.908;23.800;2023-11-18T05:34:23;0.50;;;0.50;;
40471;SDS011;26174;42.908;23.800;2023-11-18T05:36:49;0.10;;;0.10;;
40471;SDS011;26174;42.908;23.800;2023-11-18T05:39:19;0.68;;;0.35;;
40471;SDS011;26174;42.908;23.800;2023-11-18T05:41:46;1.45;;;0.50;;
40471;SDS011;26174;42.908;23.800;2023-11-18T05:44:15;0.30;;;0.30;;
40471;SDS011;26174;42.908;23.800;2023-11-18T05:46:47;0.30;;;0.30;;
40471;SDS011;26174;42.908;23.800;2023-11-18T05:49:13;0.00;;;0.00;;
40471;SDS011;26174;42.908;23.800;2023-11-18T05:51:39;0.00;;;0.00;;
40471;SDS011;26174;42.908;23.800;2023-11-18T05:54:07;0.20;;;0.20;;
40471;SDS011;26174;42.908;23.800;2023-11-18T05:56:33;0.30;;;0.30;;
40471;SDS011;26174;42.908;23.800;2023-11-18T05:58:59;0.17;;;0.17;;
40471;SDS011;26174;42.908;23.800;2023-11-18T06:01:27;0.73;;;0.63;;
40471;SDS011;26174;42.908;23.800;2023-11-18T06:03:54;0.30;;;0.30;;
40471;SDS011;26174;42.908;23.800;2023-11-18T06:06:21;0.10;;;0.10;;
40471;SDS011;26174;42.908;23.800;2023-11-18T06:08:51;0.32;;;0.32;;
40471;SDS011;26174;42.908;23.800;2023-11-18T06:11:43;0.10;;;0.10;;
40471;SDS011;26174;42.908;23.800;2023-11-18T06:14:09;0.15;;;0.15;;
40471;SDS011;26174;42.908;23.800;2023-11-18T06:16:37;0.10;;;0.10;;
40471;SDS011;26174;42.908;23.800;2023-11-18T06:19:02;0.75;;;0.65;;
40471;SDS011;26174;42.908;23.800;2023-11-18T06:21:30;0.10;;;0.10;;
40471;SDS011;26174;42.908;23.800;2023-11-18T06:23:57;0.13;;;0.13;;
40471;SDS011;26174;42.908;23.800;2023-11-18T06:26:23;0.88;;;0.88;;
40471;SDS011;26174;42.908;23.800;2023-11-18T06:28:51;0.08;;;0.05;;
40471;SDS011;26174;42.908;23.800;2023-11-18T06:31:18;0.20;;;0.20;;
40471;SDS011;26174;42.908;23.800;2023-11-18T06:33:45;10.10;;;5.35;;
40471;SDS011;26174;42.908;23.800;2023-11-18T06:38:44;14.88;;;7.68;;
40471;SDS011;26174;42.908;23.800;2023-11-18T06:41:11;12.10;;;6.10;;
40471;SDS011;26174;42.908;23.800;2023-11-18T06:43:42;3.08;;;2.17;;
40471;SDS011;26174;42.908;23.800;2023-11-18T06:46:23;0.82;;;0.82;;
40471;SDS011;26174;42.908;23.800;2023-11-18T06:48:53;0.70;;;0.65;;
40471;SDS011;26174;42.908;23.800;2023-11-18T06:51:20;2.38;;;0.88;;
40471;SDS011;26174;42.908;23.800;2023-11-18T06:53:49;2.47;;;1.30;;
40471;SDS011;26174;42.908;23.800;2023-11-18T06:56:16;1.05;;;1.02;;
40471;SDS011;26174;42.908;23.800;2023-11-18T06:58:42;1.70;;;0.93;;
40471;SDS011;26174;42.908;23.800;2023-11-18T07:01:08;1.00;;;0.93;;
40471;SDS011;26174;42.908;23.800;2023-11-18T07:03:35;0.22;;;0.22;;
40471;SDS011;26174;42.908;23.800;2023-11-18T07:06:04;2.30;;;0.63;;
40471;SDS011;26174;42.908;23.800;2023-11-18T07:08:31;0.95;;;0.95;;
40471;SDS011;26174;42.908;23.800;2023-11-18T07:10:57;1.30;;;1.20;;
40471;SDS011;26174;42.908;23.800;2023-11-18T07:13:23;2.85;;;2.65;;
40471;SDS011;26174;42.908;23.800;2023-11-18T07:15:49;3.95;;;1.95;;
40471;SDS011;26174;42.908;23.800;2023-11-18T07:18:15;1.25;;;0.90;;
40471;SDS011;26174;42.908;23.800;2023-11-18T07:20:42;3.58;;;0.93;;
40471;SDS011;26174;42.908;23.800;2023-11-18T07:23:08;1.80;;;1.27;;
40471;SDS011;26174;42.908;23.800;2023-11-18T07:25:34;3.85;;;1.73;;
40471;SDS011;26174;42.908;23.800;2023-11-18T07:28:00;1.60;;;1.33;;
40471;SDS011;26174;42.908;23.800;2023-11-18T07:30:25;0.93;;;0.93;;
40471;SDS011;26174;42.908;23.800;2023-11-18T07:32:51;1.95;;;1.08;;
40471;SDS011;26174;42.908;23.800;2023-11-18T07:35:17;1.23;;;1.02;;
40471;SDS011;26174;42.908;23.800;2023-11-18T07:37:43;0.47;;;0.40;;
40471;SDS011;26174;42.908;23.800;2023-11-18T07:40:09;1.42;;;0.82;;
40471;SDS011;26174;42.908;23.800;2023-11-18T07:42:37;0.40;;;0.40;;
40471;SDS011;26174;42.908;23.800;2023-11-18T07:45:04;2.65;;;0.40;;
40471;SDS011;26174;42.908;23.800;2023-11-18T07:47:42;0.03;;;0.03;;
40471;SDS011;26174;42.908;23.800;2023-11-18T07:50:08;0.43;;;0.43;;
40471;SDS011;26174;42.908;23.800;2023-11-18T07:52:37;0.00;;;0.00;;
40471;SDS011;26174;42.908;23.800;2023-11-18T07:55:03;0.15;;;0.15;;
40471;SDS011;26174;42.908;23.800;2023-11-18T07:57:29;0.05;;;0.05;;
40471;SDS011;26174;42.908;23.800;2023-11-18T07:59:55;3.38;;;0.32;;
40471;SDS011;26174;42.908;23.800;2023-11-18T08:02:20;0.60;;;0.60;;
40471;SDS011;26174;42.908;23.800;2023-11-18T08:04:46;1.17;;;0.60;;
40471;SDS011;26174;42.908;23.800;2023-11-18T08:07:11;11.85;;;1.23;;
40471;SDS011;26174;42.908;23.800;2023-11-18T08:09:37;0.45;;;0.45;;
40471;SDS011;26174;42.908;23.800;2023-11-18T08:12:04;0.52;;;0.52;;
40471;SDS011;26174;42.908;23.800;2023-11-18T08:14:34;0.47;;;0.47;;
40471;SDS011;26174;42.908;23.800;2023-11-18T08:17:00;0.60;;;0.60;;
40471;SDS011;26174;42.908;23.800;2023-11-18T08:19:25;22.10;;;1.77;;
40471;SDS011;26174;42.908;23.800;2023-11-18T08:21:51;1.08;;;0.88;;
40471;SDS011;26174;42.908;23.800;2023-11-18T08:24:17;3.60;;;1.63;;
40471;SDS011;26174;42.908;23.800;2023-11-18T08:26:43;2.42;;;1.33;;
40471;SDS011;26174;42.908;23.800;2023-11-18T08:29:08;3.85;;;1.63;;
40471;SDS011;26174;42.908;23.800;2023-11-18T08:31:34;0.90;;;0.90;;
40471;SDS011;26174;42.908;23.800;2023-11-18T08:34:00;2.17;;;1.88;;
40471;SDS011;26174;42.908;23.800;2023-11-18T08:36:25;1.48;;;1.38;;
40471;SDS011;26174;42.908;23.800;2023-11-18T08:38:52;2.03;;;1.83;;
40471;SDS011;26174;42.908;23.800;2023-11-18T08:41:18;2.17;;;1.85;;
40471;SDS011;26174;42.908;23.800;2023-11-18T08:43:45;5.10;;;1.77;;
40471;SDS011;26174;42.908;23.800;2023-11-18T08:46:14;2.58;;;1.40;;
40471;SDS011;26174;42.908;23.800;2023-11-18T08:48:40;2.08;;;0.90;;
40471;SDS011;26174;42.908;23.800;2023-11-18T08:51:07;0.75;;;0.60;;
40471;SDS011;26174;42.908;23.800;2023-11-18T08:53:34;2.58;;;1.08;;
40471;SDS011;26174;42.908;23.800;2023-11-18T08:56:07;2.20;;;1.35;;
40471;SDS011;26174;42.908;23.800;2023-11-18T08:58:39;1.83;;;1.38;;
40471;SDS011;26174;42.908;23.800;2023-11-18T09:01:06;3.95;;;2.20;;
40471;SDS011;26174;42.908;23.800;2023-11-18T09:03:38;13.18;;;3.45;;
40471;SDS011;26174;42.908;23.800;2023-11-18T09:06:09;1.17;;;1.08;;
40471;SDS011;26174;42.908;23.800;2023-11-18T09:08:50;1.88;;;1.77;;
40471;SDS011;26174;42.908;23.800;2023-11-18T09:11:20;3.22;;;2.08;;
40471;SDS011;26174;42.908;23.800;2023-11-18T09:13:52;4.35;;;2.95;;
40471;SDS011;26174;42.908;23.800;2023-11-18T09:16:24;4.47;;;1.38;;
40471;SDS011;26174;42.908;23.800;2023-11-18T09:18:54;9.50;;;2.88;;
40471;SDS011;26174;42.908;23.800;2023-11-18T09:21:20;3.65;;;3.28;;
40471;SDS011;26174;42.908;23.800;2023-11-18T09:23:50;4.43;;;2.67;;
40471;SDS011;26174;42.908;23.800;2023-11-18T09:26:16;1.65;;;1.55;;
40471;SDS011;26174;42.908;23.800;2023-11-18T09:28:42;0.95;;;0.90;;
40471;SDS011;26174;42.908;23.800;2023-11-18T09:31:09;1.67;;;1.58;;
40471;SDS011;26174;42.908;23.800;2023-11-18T09:33:38;0.75;;;0.47;;
40471;SDS011;26174;42.908;23.800;2023-11-18T09:36:08;1.17;;;1.05;;
40471;SDS011;26174;42.908;23.800;2023-11-18T09:38:40;1.27;;;1.15;;
40471;SDS011;26174;42.908;23.800;2023-11-18T09:41:06;11.10;;;3.10;;
40471;SDS011;26174;42.908;23.800;2023-11-18T09:43:38;1.15;;;1.05;;
40471;SDS011;26174;42.908;23.800;2023-11-18T09:46:15;1.23;;;1.05;;
40471;SDS011;26174;42.908;23.800;2023-11-18T09:49:02;1.48;;;1.17;;
40471;SDS011;26174;42.908;23.800;2023-11-18T09:51:39;1.45;;;1.27;;
40471;SDS011;26174;42.908;23.800;2023-11-18T09:57:07;3.47;;;1.88;;
40471;SDS011;26174;42.908;23.800;2023-11-18T09:59:51;1.95;;;1.45;;
40471;SDS011;26174;42.908;23.800;2023-11-18T10:02:20;2.50;;;1.75;;
40471;SDS011;26174;42.908;23.800;2023-11-18T10:04:48;5.97;;;2.35;;
40471;SDS011;26174;42.908;23.800;2023-11-18T10:07:15;0.45;;;0.45;;
40471;SDS011;26174;42.908;23.800;2023-11-18T10:09:44;1.08;;;0.70;;
40471;SDS011;26174;42.908;23.800;2023-11-18T10:12:11;0.50;;;0.50;;
40471;SDS011;26174;42.908;23.800;2023-11-18T10:14:42;0.85;;;0.85;;
40471;SDS011;26174;42.908;23.800;2023-11-18T10:17:08;1.55;;;0.52;;
40471;SDS011;26174;42.908;23.800;2023-11-18T10:19:53;0.88;;;0.88;;
40471;SDS011;26174;42.908;23.800;2023-11-18T10:22:22;0.45;;;0.35;;
40471;SDS011;26174;42.908;23.800;2023-11-18T10:24:49;0.82;;;0.47;;
40471;SDS011;26174;42.908;23.800;2023-11-18T10:27:14;0.40;;;0.40;;
40471;SDS011;26174;42.908;23.800;2023-11-18T10:29:40;0.35;;;0.35;;
40471;SDS011;26174;42.908;23.800;2023-11-18T10:32:06;0.20;;;0.20;;
40471;SDS011;26174;42.908;23.800;2023-11-18T10:34:41;0.63;;;0.63;;
40471;SDS011;26174;42.908;23.800;2023-11-18T10:37:08;1.35;;;0.98;;
40471;SDS011;26174;42.908;23.800;2023-11-18T10:39:35;0.70;;;0.70;;
40471;SDS011;26174;42.908;23.800;2023-11-18T10:42:02;2.05;;;1.50;;
40471;SDS011;26174;42.908;23.800;2023-11-18T10:44:28;0.90;;;0.82;;
40471;SDS011;26174;42.908;23.800;2023-11-18T10:46:56;0.60;;;0.60;;
40471;SDS011;26174;42.908;23.800;2023-11-18T10:49:27;0.63;;;0.32;;
40471;SDS011;26174;42.908;23.800;2023-11-18T10:51:53;1.00;;;0.52;;
40471;SDS011;26174;42.908;23.800;2023-11-18T10:54:18;0.65;;;0.65;;
40471;SDS011;26174;42.908;23.800;2023-11-18T10:56:48;1.55;;;1.00;;
40471;SDS011;26174;42.908;23.800;2023-11-18T10:59:15;1.70;;;1.25;;
40471;SDS011;26174;42.908;23.800;2023-11-18T11:01:42;0.75;;;0.52;;
40471;SDS011;26174;42.908;23.800;2023-11-18T11:04:08;0.15;;;0.15;;
40471;SDS011;26174;42.908;23.800;2023-11-18T11:06:36;0.43;;;0.43;;
40471;SDS011;26174;42.908;23.800;2023-11-18T11:09:07;2.22;;;1.63;;
40471;SDS011;26174;42.908;23.800;2023-11-18T11:11:57;2.90;;;1.50;;
40471;SDS011;26174;42.908;23.800;2023-11-18T11:14:32;1.35;;;1.08;;
40471;SDS011;26174;42.908;23.800;2023-11-18T11:17:05;0.22;;;0.22;;
40471;SDS011;26174;42.908;23.800;2023-11-18T11:22:46;2.35;;;1.10;;
40471;SDS011;26174;42.908;23.800;2023-11-18T11:25:24;1.38;;;1.08;;
40471;SDS011;26174;42.908;23.800;2023-11-18T11:28:00;6.60;;;0.93;;
40471;SDS011;26174;42.908;23.800;2023-11-18T11:30:43;21.15;;;0.95;;
40471;SDS011;26174;42.908;23.800;2023-11-18T11:35:56;2.75;;;1.80;;
40471;SDS011;26174;42.908;23.800;2023-11-18T11:38:25;0.47;;;0.47;;
40471;SDS011;26174;42.908;23.800;2023-11-18T11:40:52;1.17;;;1.02;;
40471;SDS011;26174;42.908;23.800;2023-11-18T11:43:20;0.20;;;0.20;;
40471;SDS011;26174;42.908;23.800;2023-11-18T11:45:53;0.98;;;0.75;;
40471;SDS011;26174;42.908;23.800;2023-11-18T11:48:25;0.98;;;0.52;;
40471;SDS011;26174;42.908;23.800;2023-11-18T11:53:49;12.25;;;7.25;;
40471;SDS011;26174;42.908;23.800;2023-11-18T11:56:18;18.08;;;8.52;;
40471;SDS011;26174;42.908;23.800;2023-11-18T11:58:49;15.95;;;7.15;;
40471;SDS011;26174;42.908;23.800;2023-11-18T12:01:25;11.00;;;4.55;;
40471;SDS011;26174;42.908;23.800;2023-11-18T12:04:00;11.43;;;4.20;;
40471;SDS011;26174;42.908;23.800;2023-11-18T12:06:46;7.25;;;3.80;;
40471;SDS011;26174;42.908;23.800;2023-11-18T12:09:15;6.32;;;4.25;;
40471;SDS011;26174;42.908;23.800;2023-11-18T12:11:48;7.60;;;4.38;;
40471;SDS011;26174;42.908;23.800;2023-11-18T12:14:14;8.23;;;3.97;;
40471;SDS011;26174;42.908;23.800;2023-11-18T12:17:02;7.90;;;4.43;;
40471;SDS011;26174;42.908;23.800;2023-11-18T12:19:37;10.40;;;4.88;;
40471;SDS011;26174;42.908;23.800;2023-11-18T12:22:13;11.20;;;4.85;;
40471;SDS011;26174;42.908;23.800;2023-11-18T12:33:00;25.55;;;13.25;;
40471;SDS011;26174;42.908;23.800;2023-11-18T12:41:10;11.32;;;4.07;;
40471;SDS011;26174;42.908;23.800;2023-11-18T12:47:03;8.00;;;4.35;;
40471;SDS011;26174;42.908;23.800;2023-11-18T12:49:39;9.25;;;3.90;;
40471;SDS011;26174;42.908;23.800;2023-11-18T12:52:07;16.52;;;7.93;;
40471;SDS011;26174;42.908;23.800;2023-11-18T12:54:33;26.40;;;10.60;;
40471;SDS011;26174;42.908;23.800;2023-11-18T12:57:02;12.48;;;6.53;;
40471;SDS011;26174;42.908;23.800;2023-11-18T12:59:28;11.00;;;5.35;;
40471;SDS011;26174;42.908;23.800;2023-11-18T13:01:56;7.97;;;4.57;;
40471;SDS011;26174;42.908;23.800;2023-11-18T13:04:22;8.75;;;5.15;;
40471;SDS011;26174;42.908;23.800;2023-11-18T13:06:52;6.57;;;3.60;;
40471;SDS011;26174;42.908;23.800;2023-11-18T13:09:18;10.30;;;4.20;;
40471;SDS011;26174;42.908;23.800;2023-11-18T13:11:54;3.95;;;2.67;;
40471;SDS011;26174;42.908;23.800;2023-11-18T13:14:26;3.03;;;2.22;;
40471;SDS011;26174;42.908;23.800;2023-11-18T13:16:56;4.60;;;2.22;;
40471;SDS011;26174;42.908;23.800;2023-11-18T13:19:26;3.53;;;2.40;;
40471;SDS011;26174;42.908;23.800;2023-11-18T13:21:59;3.72;;;2.30;;
40471;SDS011;26174;42.908;23.800;2023-11-18T13:24:26;2.72;;;1.73;;
40471;SDS011;26174;42.908;23.800;2023-11-18T13:26:53;4.80;;;2.60;;
40471;SDS011;26174;42.908;23.800;2023-11-18T13:29:20;6.78;;;2.00;;
40471;SDS011;26174;42.908;23.800;2023-11-18T13:31:47;2.05;;;1.58;;
40471;SDS011;26174;42.908;23.800;2023-11-18T13:34:13;9.63;;;3.65;;
40471;SDS011;26174;42.908;23.800;2023-11-18T13:36:39;8.43;;;3.55;;
40471;SDS011;26174;42.908;23.800;2023-11-18T13:39:05;6.93;;;4.03;;
40471;SDS011;26174;42.908;23.800;2023-11-18T13:41:32;7.45;;;5.13;;
40471;SDS011;26174;42.908;23.800;2023-11-18T13:43:57;8.82;;;4.95;;
40471;SDS011;26174;42.908;23.800;2023-11-18T13:46:23;14.52;;;6.72;;
40471;SDS011;26174;42.908;23.800;2023-11-18T13:48:49;8.90;;;4.90;;
40471;SDS011;26174;42.908;23.800;2023-11-18T13:51:16;8.35;;;3.65;;
40471;SDS011;26174;42.908;23.800;2023-11-18T13:53:44;6.05;;;2.70;;
40471;SDS011;26174;42.908;23.800;2023-11-18T13:56:12;3.03;;;2.13;;
40471;SDS011;26174;42.908;23.800;2023-11-18T13:58:42;8.48;;;5.60;;
40471;SDS011;26174;42.908;23.800;2023-11-18T14:01:10;9.00;;;4.70;;
40471;SDS011;26174;42.908;23.800;2023-11-18T14:03:37;6.18;;;2.60;;
40471;SDS011;26174;42.908;23.800;2023-11-18T14:06:06;5.05;;;2.63;;
40471;SDS011;26174;42.908;23.800;2023-11-18T14:08:36;5.80;;;2.67;;
40471;SDS011;26174;42.908;23.800;2023-11-18T14:11:02;4.05;;;2.47;;
40471;SDS011;26174;42.908;23.800;2023-11-18T14:13:30;4.47;;;3.20;;
40471;SDS011;26174;42.908;23.800;2023-11-18T14:15:59;3.67;;;2.70;;
40471;SDS011;26174;42.908;23.800;2023-11-18T14:18:25;6.60;;;3.20;;
40471;SDS011;26174;42.908;23.800;2023-11-18T14:20:51;8.50;;;3.47;;
40471;SDS011;26174;42.908;23.800;2023-11-18T14:23:17;5.85;;;2.85;;
40471;SDS011;26174;42.908;23.800;2023-11-18T14:25:44;8.80;;;3.28;;
40471;SDS011;26174;42.908;23.800;2023-11-18T14:28:13;4.30;;;3.05;;
40471;SDS011;26174;42.908;23.800;2023-11-18T14:30:38;10.70;;;5.10;;
40471;SDS011;26174;42.908;23.800;2023-11-18T14:33:05;9.80;;;5.40;;
40471;SDS011;26174;42.908;23.800;2023-11-18T14:35:32;11.82;;;6.13;;
40471;SDS011;26174;42.908;23.800;2023-11-18T14:37:59;13.18;;;7.65;;
40471;SDS011;26174;42.908;23.800;2023-11-18T14:40:26;12.52;;;6.25;;
40471;SDS011;26174;42.908;23.800;2023-11-18T14:42:53;7.88;;;4.95;;
40471;SDS011;26174;42.908;23.800;2023-11-18T14:45:19;7.20;;;4.80;;
40471;SDS011;26174;42.908;23.800;2023-11-18T14:47:44;9.30;;;5.97;;
40471;SDS011;26174;42.908;23.800;2023-11-18T14:50:11;13.43;;;7.03;;
40471;SDS011;26174;42.908;23.800;2023-11-18T14:55:12;112.80;;;37.55;;
40471;SDS011;26174;42.908;23.800;2023-11-18T14:57:38;33.85;;;12.63;;
40471;SDS011;26174;42.908;23.800;2023-11-18T15:00:05;52.03;;;17.38;;
40471;SDS011;26174;42.908;23.800;2023-11-18T15:02:33;24.10;;;9.13;;
40471;SDS011;26174;42.908;23.800;2023-11-18T15:04:59;19.88;;;7.68;;
40471;SDS011;26174;42.908;23.800;2023-11-18T15:07:28;28.90;;;12.10;;
40471;SDS011;26174;42.908;23.800;2023-11-18T15:09:53;10.80;;;5.55;;
40471;SDS011;26174;42.908;23.800;2023-11-18T15:12:19;17.15;;;7.30;;
40471;SDS011;26174;42.908;23.800;2023-11-18T15:14:45;88.45;;;31.70;;
40471;SDS011;26174;42.908;23.800;2023-11-18T15:17:10;69.97;;;29.50;;
40471;SDS011;26174;42.908;23.800;2023-11-18T15:19:38;22.17;;;10.30;;